Time;durP1;ratioP1;P1;durP2;ratioP2;P2;SDS_P1;SDS_P2;PMS_P1;PMS_P2;Temp;Humidity;BMP_temperature;BMP_pressure;BME280_temperature;BME280_humidity;BME280_pressure;Samples;Min_cycle;Max_cycle;Signal;HPM_P1;HPM_P2
2024/04/11 00:01:30;;;;;;;7.22;4.13;;;6.30;99.90;;;;;;5384737;26;20004;-70
2024/04/11 00:03:57;;;;;;;11.77;5.88;;;6.30;99.90;;;;;;5384621;26;19992;-71
2024/04/11 00:06:23;;;;;;;7.07;4.80;;;6.20;99.90;;;;;;5384735;26;20435;-70
2024/04/11 00:08:48;;;;;;;8.73;5.07;;;6.20;99.90;;;;;;5384395;26;19988;-71
2024/04/11 00:11:14;;;;;;;10.52;5.30;;;6.10;99.90;;;;;;5384374;26;19988;-71
2024/04/11 00:13:40;;;;;;;7.90;5.10;;;6.10;99.90;;;;;;5384691;26;20062;-70
2024/04/11 00:16:05;;;;;;;8.27;5.00;;;6.10;99.90;;;;;;5384388;26;20318;-70
2024/04/11 00:18:31;;;;;;;10.45;5.75;;;6.10;99.90;;;;;;5384263;26;19989;-70
2024/04/11 00:20:56;;;;;;;10.68;5.15;;;6.10;99.90;;;;;;5384054;26;20000;-70
2024/04/11 00:23:22;;;;;;;9.07;4.45;;;6.10;99.90;;;;;;5384313;26;20070;-71
2024/04/11 00:25:55;;;;;;;8.55;4.65;;;6.20;99.90;;;;;;5384057;26;20482;-71
2024/04/11 00:28:22;;;;;;;7.30;4.75;;;6.30;99.90;;;;;;5383938;26;19992;-71
2024/04/11 00:30:48;;;;;;;8.70;4.47;;;6.30;99.90;;;;;;5383886;26;19988;-70
2024/04/11 00:33:13;;;;;;;9.80;4.38;;;6.40;99.90;;;;;;5383971;26;20434;-70
2024/04/11 00:35:40;;;;;;;10.00;4.18;;;6.40;99.90;;;;;;5383699;26;19993;-70
2024/04/11 00:38:10;;;;;;;10.20;4.40;;;6.40;99.90;;;;;;5383907;26;20319;-70
2024/04/11 00:40:36;;;;;;;9.75;4.82;;;6.40;99.90;;;;;;5383880;26;20000;-70
2024/04/11 00:43:01;;;;;;;6.13;4.68;;;6.30;99.90;;;;;;5383780;26;20322;-70
2024/04/11 00:45:27;;;;;;;7.03;4.40;;;6.30;99.90;;;;;;5384004;26;19994;-71
2024/04/11 00:47:53;;;;;;;7.50;4.10;;;6.40;99.90;;;;;;5384199;26;19992;-68
2024/04/11 00:50:19;;;;;;;6.20;4.18;;;6.40;99.90;;;;;;5383654;26;20002;-69
2024/04/11 00:52:47;;;;;;;7.82;5.35;;;6.40;99.90;;;;;;5383709;26;20318;-69
2024/04/11 00:55:14;;;;;;;6.32;4.18;;;6.40;99.90;;;;;;5384462;26;19999;-69
2024/04/11 00:57:40;;;;;;;10.25;5.25;;;6.40;99.90;;;;;;5383804;26;20016;-69
2024/04/11 01:00:06;;;;;;;7.30;4.30;;;6.40;99.90;;;;;;5383678;26;20008;-70
2024/04/11 01:02:33;;;;;;;12.02;5.20;;;6.40;99.90;;;;;;5383766;26;20383;-70
2024/04/11 01:05:00;;;;;;;9.77;4.53;;;6.50;99.90;;;;;;5384053;26;20445;-70
2024/04/11 01:07:26;;;;;;;7.50;4.50;;;6.50;99.90;;;;;;5383433;26;20463;-70
2024/04/11 01:09:52;;;;;;;8.77;4.40;;;6.50;99.90;;;;;;5383788;26;20003;-70
2024/04/11 01:12:18;;;;;;;6.85;4.05;;;6.40;99.90;;;;;;5383422;26;20037;-70
2024/04/11 01:14:45;;;;;;;7.07;3.97;;;6.40;99.90;;;;;;5383771;26;19998;-70
2024/04/11 01:17:16;;;;;;;9.00;3.95;;;6.40;99.90;;;;;;5383741;26;19988;-70
2024/04/11 01:19:44;;;;;;;5.57;4.00;;;6.40;99.90;;;;;;5383113;26;20523;-70
2024/04/11 01:22:10;;;;;;;6.93;4.07;;;6.40;99.90;;;;;;5383146;26;20438;-70
2024/04/11 01:24:40;;;;;;;7.68;4.10;;;6.30;99.90;;;;;;5383280;26;19989;-70
2024/04/11 01:27:07;;;;;;;8.77;4.50;;;6.20;99.90;;;;;;5382933;26;19999;-70
2024/04/11 01:29:35;;;;;;;9.35;4.53;;;6.20;99.90;;;;;;5383017;26;19988;-70
2024/04/11 01:32:03;;;;;;;6.70;4.80;;;6.20;99.90;;;;;;5383288;26;20075;-70
2024/04/11 01:34:30;;;;;;;7.57;4.63;;;6.20;99.90;;;;;;5383170;26;20003;-70
2024/04/11 01:36:57;;;;;;;6.35;4.13;;;6.20;99.90;;;;;;5382985;26;19988;-70
2024/04/11 01:39:22;;;;;;;8.95;4.20;;;6.20;99.90;;;;;;5382847;26;20042;-70
2024/04/11 01:41:48;;;;;;;9.30;4.55;;;6.20;99.90;;;;;;5383347;26;19988;-70
2024/04/11 01:44:14;;;;;;;7.97;4.57;;;6.10;99.90;;;;;;5383100;26;19988;-70
2024/04/11 01:46:39;;;;;;;8.13;4.82;;;6.10;99.90;;;;;;5383277;26;19993;-70
2024/04/11 01:49:05;;;;;;;10.10;5.07;;;6.10;99.90;;;;;;5382482;26;20000;-70
2024/04/11 01:51:30;;;;;;;7.85;4.55;;;6.10;99.90;;;;;;5383038;26;20057;-70
2024/04/11 01:53:56;;;;;;;7.40;4.07;;;6.10;99.90;;;;;;5382744;26;19996;-70
2024/04/11 01:56:24;;;;;;;9.52;4.65;;;6.20;99.90;;;;;;5383133;26;19988;-70
2024/04/11 01:58:49;;;;;;;12.13;4.57;;;6.20;99.90;;;;;;5382891;26;19988;-70
2024/04/11 02:01:19;;;;;;;9.27;4.35;;;6.20;99.90;;;;;;5382727;26;19999;-70
2024/04/11 02:03:44;;;;;;;13.57;4.85;;;6.20;99.90;;;;;;5382682;26;19992;-70
2024/04/11 02:06:11;;;;;;;12.70;5.10;;;6.20;99.90;;;;;;5382907;26;20066;-70
2024/04/11 02:08:37;;;;;;;10.38;4.70;;;6.30;99.90;;;;;;5382758;26;20004;-70
2024/04/11 02:11:04;;;;;;;14.63;4.43;;;6.20;99.90;;;;;;5382471;26;20434;-70
2024/04/11 02:13:30;;;;;;;10.20;4.35;;;6.20;99.90;;;;;;5382702;26;19988;-70
2024/04/11 02:15:56;;;;;;;8.95;4.53;;;6.30;99.90;;;;;;5382489;26;20003;-70
2024/04/11 02:18:21;;;;;;;13.82;4.72;;;6.30;99.90;;;;;;5382397;26;19996;-70
2024/04/11 02:20:47;;;;;;;7.90;4.25;;;6.20;99.90;;;;;;5381679;26;19998;-70
2024/04/11 02:23:13;;;;;;;9.82;4.47;;;6.20;99.90;;;;;;5382366;26;20004;-70
2024/04/11 02:25:40;;;;;;;9.60;4.43;;;6.20;99.90;;;;;;5382643;26;20463;-70
2024/04/11 02:28:06;;;;;;;10.07;4.22;;;6.20;99.90;;;;;;5382391;26;20007;-70
2024/04/11 02:30:32;;;;;;;7.75;4.13;;;6.20;99.90;;;;;;5382591;26;20063;-70
2024/04/11 02:32:57;;;;;;;7.28;4.20;;;6.30;99.90;;;;;;5382240;26;20326;-70
2024/04/11 02:35:26;;;;;;;10.20;4.30;;;6.20;99.90;;;;;;5382148;26;20016;-70
2024/04/11 02:37:53;;;;;;;6.78;4.18;;;6.20;99.90;;;;;;5382185;26;20000;-70
2024/04/11 02:40:19;;;;;;;13.30;4.20;;;6.20;99.90;;;;;;5382288;26;20011;-70
2024/04/11 02:42:45;;;;;;;8.60;3.90;;;6.20;99.90;;;;;;5382381;26;20003;-70
2024/04/11 02:45:14;;;;;;;8.73;4.75;;;6.20;99.90;;;;;;5382074;26;20004;-70
2024/04/11 02:47:41;;;;;;;10.68;4.38;;;6.30;99.90;;;;;;5382045;26;20007;-70
2024/04/11 02:50:09;;;;;;;8.80;4.35;;;6.30;99.90;;;;;;5381835;26;20469;-70
2024/04/11 02:52:36;;;;;;;8.73;4.65;;;6.30;94.00;;;;;;5381818;26;20008;-70
2024/04/11 02:55:04;;;;;;;8.07;4.55;;;6.30;74.30;;;;;;5381987;26;20462;-70
2024/04/11 02:57:31;;;;;;;11.52;4.65;;;6.30;74.10;;;;;;5381973;26;19997;-70
2024/04/11 02:59:57;;;;;;;9.45;4.15;;;6.30;48.50;;;;;;5381811;26;20480;-70
2024/04/11 03:02:24;;;;;;;11.60;4.72;;;6.30;50.30;;;;;;5381748;26;20004;-70
2024/04/11 03:04:51;;;;;;;8.38;4.50;;;6.30;49.60;;;;;;5381658;26;20012;-70
2024/04/11 03:07:19;;;;;;;8.38;4.70;;;6.30;49.40;;;;;;5381962;26;20355;-70
2024/04/11 03:09:44;;;;;;;6.22;3.55;;;6.40;52.30;;;;;;5381661;26;19992;-70
2024/04/11 03:12:10;;;;;;;7.90;4.20;;;6.50;45.80;;;;;;5381766;26;19993;-70
2024/04/11 03:14:36;;;;;;;8.63;3.75;;;6.60;41.90;;;;;;5381621;26;20446;-70
2024/04/11 03:17:04;;;;;;;12.90;3.90;;;6.60;36.60;;;;;;5382158;26;19997;-70
2024/04/11 03:19:30;;;;;;;10.55;3.95;;;6.80;30.10;;;;;;5381380;26;20307;-70
2024/04/11 03:21:56;;;;;;;8.05;3.30;;;6.90;24.70;;;;;;5381298;26;20006;-70
2024/04/11 03:24:21;;;;;;;9.18;3.80;;;6.90;17.70;;;;;;5381387;26;19993;-69
2024/04/11 03:26:47;;;;;;;8.15;3.63;;;6.90;13.50;;;;;;5381199;26;20388;-70
2024/04/11 03:29:15;;;;;;;11.73;3.92;;;6.90;16.90;;;;;;5381537;26;19996;-70
2024/04/11 03:31:42;;;;;;;9.48;3.53;;;7.00;17.20;;;;;;5383040;26;20438;-70
2024/04/11 03:34:08;;;;;;;6.13;3.13;;;7.10;2.10;;;;;;5384528;26;19996;-70
2024/04/11 03:36:34;;;;;;;5.70;3.50;;;7.10;1.00;;;;;;5384535;26;20064;-70
2024/04/11 03:38:59;;;;;;;7.72;3.63;;;7.10;1.00;;;;;;5384778;26;20011;-70
2024/04/11 03:41:26;;;;;;;11.38;3.30;;;7.20;1.00;;;;;;5384792;26;20000;-70
2024/04/11 03:43:55;;;;;;;5.07;3.15;;;7.30;1.00;;;;;;5384474;26;20010;-70
2024/04/11 03:46:23;;;;;;;8.20;3.10;;;7.30;1.00;;;;;;5384863;26;19997;-70
2024/04/11 03:48:51;;;;;;;6.82;3.25;;;7.40;1.00;;;;;;5384813;26;20618;-70
2024/04/11 03:51:19;;;;;;;6.40;2.83;;;7.50;1.00;;;;;;5384848;26;19996;-70
2024/04/11 03:53:46;;;;;;;8.70;2.97;;;7.60;1.00;;;;;;5384851;26;20010;-70
2024/04/11 03:56:18;;;;;;;11.15;3.20;;;7.60;1.00;;;;;;5384901;26;19996;-70
2024/04/11 03:58:45;;;;;;;9.20;3.00;;;7.70;1.00;;;;;;5384839;26;19996;-70
2024/04/11 04:01:13;;;;;;;14.70;2.63;;;7.80;1.00;;;;;;5384902;26;20472;-70
2024/04/11 04:03:40;;;;;;;7.63;3.00;;;7.90;1.00;;;;;;5384666;26;20013;-70
2024/04/11 04:06:06;;;;;;;10.48;3.22;;;7.90;1.00;;;;;;5384446;26;20449;-70
2024/04/11 04:08:33;;;;;;;7.93;3.00;;;8.00;1.00;;;;;;5384643;26;20350;-70
2024/04/11 04:10:59;;;;;;;10.10;3.28;;;8.00;1.00;;;;;;5384648;26;19996;-70
2024/04/11 04:13:26;;;;;;;7.20;2.53;;;8.00;1.00;;;;;;5385224;26;20325;-70
2024/04/11 04:15:53;;;;;;;5.43;3.15;;;8.10;1.00;;;;;;5384100;26;20008;-70
2024/04/11 04:18:19;;;;;;;8.65;3.22;;;8.10;1.00;;;;;;5384495;26;19996;-70
2024/04/11 04:20:54;;;;;;;8.27;3.10;;;8.20;1.00;;;;;;5384130;26;20008;-70
2024/04/11 04:23:21;;;;;;;4.53;2.17;;;8.30;99.90;;;;;;5384272;26;20007;-70
2024/04/11 04:25:54;;;;;;;11.40;3.40;;;8.30;99.90;;;;;;5384092;26;19992;-70
2024/04/11 04:28:19;;;;;;;7.50;2.85;;;8.40;99.90;;;;;;5383876;26;20066;-70
2024/04/11 04:30:45;;;;;;;11.18;2.92;;;8.50;99.90;;;;;;5383878;26;20000;-70
2024/04/11 04:33:11;;;;;;;8.65;2.70;;;8.50;99.90;;;;;;5384048;26;19993;-70
2024/04/11 04:35:36;;;;;;;5.38;2.42;;;8.60;99.90;;;;;;5383853;26;20007;-70
2024/04/11 04:38:02;;;;;;;6.85;2.20;;;8.60;99.90;;;;;;5383862;26;20008;-70
2024/04/11 04:40:28;;;;;;;6.50;2.83;;;8.80;99.90;;;;;;5383993;26;19992;-70
2024/04/11 04:42:56;;;;;;;8.23;2.40;;;8.80;99.90;;;;;;5383479;26;20477;-69
2024/04/11 04:45:21;;;;;;;10.63;2.45;;;9.00;99.90;;;;;;5383751;26;20331;-70
2024/04/11 04:47:47;;;;;;;10.45;2.95;;;9.10;1.00;;;;;;5383756;26;20009;-70
2024/04/11 04:50:13;;;;;;;5.93;2.45;;;9.10;99.90;;;;;;5383655;26;20024;-70
2024/04/11 04:52:43;;;;;;;8.77;2.50;;;9.20;99.90;;;;;;5384125;26;20002;-69
2024/04/11 04:55:10;;;;;;;7.43;2.17;;;9.20;1.00;;;;;;5383751;26;20307;-70
2024/04/11 04:57:36;;;;;;;7.32;2.75;;;9.20;1.00;;;;;;5384195;26;19993;-70
2024/04/11 05:00:03;;;;;;;6.00;2.10;;;9.30;99.90;;;;;;5383878;26;20392;-70
2024/04/11 05:02:31;;;;;;;9.13;2.75;;;9.30;1.00;;;;;;5383686;26;19992;-70
2024/04/11 05:04:57;;;;;;;6.15;2.47;;;9.40;99.90;;;;;;5383760;26;20422;-70
2024/04/11 05:07:24;;;;;;;15.57;3.13;;;9.40;1.00;;;;;;5383936;26;20065;-70
2024/04/11 05:09:49;;;;;;;5.82;2.28;;;9.40;1.00;;;;;;5383811;26;20004;-70
2024/04/11 05:12:15;;;;;;;7.00;2.20;;;9.50;57.20;;;;;;5383271;26;20333;-70
2024/04/11 05:14:45;;;;;;;4.88;2.10;;;9.60;68.90;;;;;;5383331;26;20336;-70
2024/04/11 05:17:11;;;;;;;5.60;2.03;;;9.60;77.70;;;;;;5383363;26;20003;-70
2024/04/11 05:19:37;;;;;;;8.95;1.88;;;9.60;94.80;;;;;;5383082;26;19996;-70
2024/04/11 05:22:04;;;;;;;7.38;2.60;;;9.60;98.50;;;;;;5383344;26;20528;-70
2024/04/11 05:24:30;;;;;;;6.47;2.20;;;9.60;99.90;;;;;;5383107;26;19993;-70
2024/04/11 05:26:56;;;;;;;11.38;2.13;;;9.70;99.90;;;;;;5383143;26;20069;-70
2024/04/11 05:29:21;;;;;;;6.50;2.10;;;9.70;99.90;;;;;;5383026;26;20393;-70
2024/04/11 05:31:47;;;;;;;9.40;2.40;;;9.70;99.90;;;;;;5383262;26;20065;-70
2024/04/11 05:34:20;;;;;;;4.60;1.60;;;9.80;99.90;;;;;;5383233;26;19997;-70
2024/04/11 05:36:45;;;;;;;9.32;2.00;;;9.90;99.90;;;;;;5383014;26;20003;-70
2024/04/11 05:39:14;;;;;;;5.22;1.85;;;10.00;99.90;;;;;;5382945;26;19992;-70
2024/04/11 05:41:42;;;;;;;9.13;2.50;;;10.10;99.90;;;;;;5383281;26;20002;-70
2024/04/11 05:44:07;;;;;;;7.53;1.90;;;10.20;99.90;;;;;;5382905;26;19996;-70
2024/04/11 05:46:34;;;;;;;6.10;2.03;;;10.30;99.90;;;;;;5382965;26;20000;-70
2024/04/11 05:49:00;;;;;;;5.63;2.00;;;10.40;99.90;;;;;;5382806;26;20011;-70
2024/04/11 05:51:25;;;;;;;7.13;2.20;;;10.60;99.90;;;;;;5383242;26;20355;-70
2024/04/11 05:53:51;;;;;;;8.52;2.35;;;10.70;99.90;;;;;;5382177;26;20015;-70
2024/04/11 05:56:17;;;;;;;9.50;1.98;;;10.90;99.90;;;;;;5381835;26;20028;-70
2024/04/11 05:58:45;;;;;;;6.03;2.00;;;10.90;99.90;;;;;;5382773;26;20004;-70
2024/04/11 06:01:15;;;;;;;6.72;2.00;;;11.30;99.90;;;;;;5382490;26;20000;-69
2024/04/11 06:03:46;;;;;;;9.57;1.60;;;11.90;99.90;;;;;;5382741;26;19996;-69
2024/04/11 06:06:13;;;;;;;3.90;1.65;;;12.60;99.90;;;;;;5382488;26;20004;-69
2024/04/11 06:08:40;;;;;;;6.63;1.70;;;12.80;99.90;;;;;;5382240;26;20000;-70
2024/04/11 06:11:06;;;;;;;4.90;1.58;;;12.60;99.90;;;;;;5382205;26;19992;-69
2024/04/11 06:13:32;;;;;;;7.45;2.00;;;12.40;99.90;;;;;;5382821;26;20003;-69
2024/04/11 06:16:00;;;;;;;6.75;1.80;;;12.50;99.90;;;;;;5382510;26;19996;-69
2024/04/11 06:18:28;;;;;;;9.85;2.30;;;12.20;99.90;;;;;;5382330;26;19999;-69
2024/04/11 06:20:55;;;;;;;7.22;1.95;;;12.00;99.90;;;;;;5382139;26;20474;-70
2024/04/11 06:23:21;;;;;;;9.48;2.25;;;11.90;99.90;;;;;;5382262;26;20499;-71
2024/04/11 06:25:47;;;;;;;8.52;1.83;;;11.80;99.90;;;;;;5382229;26;19993;-70
2024/04/11 06:28:15;;;;;;;7.20;1.95;;;11.80;99.90;;;;;;5382382;26;20485;-70
2024/04/11 06:30:42;;;;;;;7.35;1.90;;;11.80;99.90;;;;;;5382164;26;20000;-70
2024/04/11 06:33:08;;;;;;;6.10;1.90;;;11.80;99.90;;;;;;5381948;26;20004;-70
2024/04/11 06:35:35;;;;;;;6.90;2.00;;;11.90;99.90;;;;;;5382148;26;20033;-70
2024/04/11 06:38:04;;;;;;;6.72;2.17;;;11.80;99.90;;;;;;5382048;26;19992;-70
2024/04/11 06:40:32;;;;;;;9.57;1.80;;;11.80;99.90;;;;;;5382028;26;20000;-70
2024/04/11 06:42:59;;;;;;;7.88;2.00;;;11.80;99.90;;;;;;5381777;26;19996;-70
2024/04/11 06:45:25;;;;;;;7.72;2.17;;;11.90;99.90;;;;;;5382505;26;20000;-70
2024/04/11 06:47:53;;;;;;;7.95;2.05;;;11.90;99.90;;;;;;5381952;26;20443;-70
2024/04/11 06:50:21;;;;;;;7.38;1.80;;;11.90;99.90;;;;;;5381324;26;20011;-71
2024/04/11 06:52:47;;;;;;;8.10;2.28;;;11.90;99.90;;;;;;5381822;26;20070;-70
2024/04/11 06:55:14;;;;;;;9.45;2.38;;;11.90;99.90;;;;;;5381731;26;20442;-70
2024/04/11 06:57:43;;;;;;;8.98;2.10;;;11.90;99.90;;;;;;5381655;26;19996;-70
2024/04/11 07:00:35;;;;;;;7.65;2.55;;;12.00;99.90;;;;;;5381830;26;20069;-71
2024/04/11 07:02:56;;;;;;;6.78;2.05;;;12.00;99.90;;;;;;5381988;26;20011;-71
2024/04/11 07:05:22;;;;;;;11.13;2.47;;;11.90;99.90;;;;;;5381807;26;20004;-71
2024/04/11 07:07:54;;;;;;;9.25;2.00;;;12.00;99.90;;;;;;5384898;26;20011;-71
2024/04/11 07:10:36;;;;;;;10.70;2.20;;;12.00;99.90;;;;;;5384596;26;20438;-71
2024/04/11 07:13:01;;;;;;;6.93;1.60;;;12.00;99.90;;;;;;5384808;26;20003;-70
2024/04/11 07:15:29;;;;;;;8.00;2.25;;;12.00;99.90;;;;;;5384929;26;20074;-70
2024/04/11 07:17:56;;;;;;;6.20;1.50;;;12.00;99.90;;;;;;5384972;26;20027;-71
2024/04/11 07:20:26;;;;;;;5.22;1.60;;;11.90;99.90;;;;;;5384912;26;20011;-71
2024/04/11 07:22:54;;;;;;;11.02;2.00;;;12.00;99.90;;;;;;5384875;26;20003;-70
2024/04/11 07:25:21;;;;;;;11.38;2.40;;;11.90;99.90;;;;;;5384743;26;20000;-71
2024/04/11 07:27:46;;;;;;;13.98;2.40;;;12.00;99.90;;;;;;5384653;26;20019;-70
2024/04/11 07:30:12;;;;;;;10.10;2.00;;;12.00;99.90;;;;;;5384651;26;20020;-71
2024/04/11 07:32:40;;;;;;;6.70;1.92;;;12.00;99.90;;;;;;5384695;26;19992;-71
2024/04/11 07:35:06;;;;;;;13.02;2.08;;;12.00;99.90;;;;;;5384489;26;19992;-71
2024/04/11 07:37:32;;;;;;;8.25;2.05;;;12.00;99.90;;;;;;5384808;26;20067;-71
2024/04/11 07:40:00;;;;;;;9.02;1.98;;;12.10;99.90;;;;;;5384529;26;19996;-71
2024/04/11 07:42:48;;;;;;;7.70;2.40;;;12.00;99.90;;;;;;5384319;26;20442;-71
2024/04/11 07:45:17;;;;;;;10.73;2.38;;;12.10;99.90;;;;;;5384412;26;20011;-71
2024/04/11 07:47:43;;;;;;;12.75;2.30;;;12.20;99.90;;;;;;5384250;26;20470;-71
2024/04/11 07:50:11;;;;;;;11.93;2.10;;;12.20;99.90;;;;;;5384274;26;20007;-71
2024/04/11 07:52:37;;;;;;;11.93;1.90;;;12.20;99.90;;;;;;5384542;26;20004;-71
2024/04/11 07:55:04;;;;;;;10.52;2.05;;;12.20;99.90;;;;;;5384704;26;20003;-71
2024/04/11 07:57:30;;;;;;;8.40;2.50;;;12.20;99.90;;;;;;5384407;26;20028;-71
2024/04/11 08:00:00;;;;;;;15.05;2.10;;;12.20;99.90;;;;;;5384363;26;20443;-71
2024/04/11 08:02:26;;;;;;;4.78;1.83;;;12.20;99.90;;;;;;5384190;26;19992;-71
2024/04/11 08:04:52;;;;;;;10.75;2.35;;;12.20;99.90;;;;;;5384920;26;20457;-71
2024/04/11 08:07:18;;;;;;;9.25;1.90;;;12.20;99.90;;;;;;5384189;26;19992;-71
2024/04/11 08:09:44;;;;;;;4.35;2.03;;;12.30;99.90;;;;;;5383886;26;20000;-70
2024/04/11 08:12:10;;;;;;;5.85;1.80;;;12.30;99.90;;;;;;5383800;26;20015;-71
2024/04/11 08:14:36;;;;;;;6.55;2.13;;;12.30;99.90;;;;;;5384016;26;20000;-71
2024/04/11 08:17:01;;;;;;;5.30;1.48;;;12.40;99.90;;;;;;5383211;26;20007;-70
2024/04/11 08:19:27;;;;;;;12.05;2.20;;;12.50;99.90;;;;;;5383233;26;20000;-70
2024/04/11 08:21:53;;;;;;;8.70;1.75;;;12.60;99.90;;;;;;5383854;26;19993;-70
2024/04/11 08:24:18;;;;;;;10.70;1.90;;;12.70;99.90;;;;;;5384022;26;20007;-70
2024/04/11 08:26:43;;;;;;;6.72;1.95;;;12.80;99.90;;;;;;5384045;26;20011;-71
2024/04/11 08:29:09;;;;;;;6.18;1.70;;;13.00;99.90;;;;;;5383953;26;19992;-71
2024/04/11 08:31:35;;;;;;;6.57;2.20;;;13.10;99.90;;;;;;5383771;26;20008;-71
2024/04/11 08:34:00;;;;;;;7.30;2.22;;;13.30;99.90;;;;;;5383784;26;20008;-71
2024/04/11 08:36:29;;;;;;;7.05;1.98;;;13.40;99.90;;;;;;5383837;26;20046;-71
2024/04/11 08:38:58;;;;;;;10.23;2.33;;;13.40;99.90;;;;;;5383817;26;20103;-71
2024/04/11 08:41:25;;;;;;;9.57;2.15;;;13.40;99.90;;;;;;5383663;26;19996;-71
2024/04/11 08:43:51;;;;;;;6.60;2.20;;;13.30;99.90;;;;;;5383727;26;20012;-71
2024/04/11 08:46:16;;;;;;;10.40;2.10;;;13.30;99.90;;;;;;5384083;26;20006;-71
2024/04/11 08:48:42;;;;;;;10.95;2.38;;;13.30;99.90;;;;;;5383254;26;20002;-71
2024/04/11 08:51:19;;;;;;;9.77;2.28;;;13.30;99.90;;;;;;5383858;26;20002;-71
2024/04/11 08:53:46;;;;;;;9.80;2.40;;;13.30;99.90;;;;;;5383917;26;20313;-71
2024/04/11 08:56:14;;;;;;;7.18;2.28;;;13.20;99.90;;;;;;5383458;26;20008;-71
2024/04/11 08:58:44;;;;;;;12.82;2.10;;;13.30;99.90;;;;;;5383794;26;20465;-71
2024/04/11 09:01:10;;;;;;;8.35;2.30;;;13.40;99.90;;;;;;5383149;26;20003;-71
2024/04/11 09:03:36;;;;;;;7.00;2.20;;;13.70;99.90;;;;;;5383248;26;20010;-71
2024/04/11 09:06:02;;;;;;;9.38;2.63;;;13.80;99.90;;;;;;5383302;26;20430;-71
2024/04/11 09:08:28;;;;;;;9.68;2.28;;;14.00;99.90;;;;;;5383226;26;20028;-71
2024/04/11 09:10:55;;;;;;;5.93;2.17;;;14.20;99.90;;;;;;5383039;26;20090;-71
2024/04/11 09:13:23;;;;;;;8.32;2.47;;;14.20;99.90;;;;;;5383454;26;20366;-71
2024/04/11 09:16:04;;;;;;;9.43;2.25;;;14.20;99.90;;;;;;5382993;26;20156;-71
2024/04/11 09:18:30;;;;;;;5.10;1.75;;;13.90;99.90;;;;;;5383114;26;19993;-71
2024/04/11 09:21:04;;;;;;;8.30;2.40;;;13.90;99.90;;;;;;5382887;26;20061;-71
2024/04/11 09:23:34;;;;;;;6.00;1.70;;;13.90;99.90;;;;;;5383175;26;20065;-71
2024/04/11 09:26:01;;;;;;;10.05;2.67;;;13.90;99.90;;;;;;5383041;26;20028;-71
2024/04/11 09:28:28;;;;;;;10.27;2.25;;;13.80;99.90;;;;;;5382873;26;20397;-71
2024/04/11 09:30:54;;;;;;;7.78;2.30;;;13.90;99.90;;;;;;5383229;26;20334;-71
2024/04/11 09:33:22;;;;;;;5.95;1.70;;;13.90;99.90;;;;;;5383235;26;20430;-70
2024/04/11 09:35:53;;;;;;;4.95;2.00;;;14.00;99.90;;;;;;5383169;26;20021;-69
2024/04/11 09:38:22;;;;;;;8.43;1.90;;;14.00;99.90;;;;;;5382843;26;20329;-70
2024/04/11 09:40:50;;;;;;;7.70;2.00;;;14.00;99.90;;;;;;5383186;26;19996;-70
2024/04/11 09:43:17;;;;;;;9.20;1.88;;;14.10;99.90;;;;;;5382642;26;20475;-70
2024/04/11 09:45:50;;;;;;;7.82;2.10;;;14.10;99.90;;;;;;5383173;26;20024;-70
2024/04/11 09:48:18;;;;;;;;;;;14.00;99.90;;;;;;5383582;26;20327;-71
2024/04/11 09:50:48;;;;;;;8.85;1.60;;;13.90;99.90;;;;;;5382647;26;19932;-71
2024/04/11 09:53:26;;;;;;;6.00;1.95;;;14.00;99.90;;;;;;5382945;26;19996;-71
2024/04/11 09:55:53;;;;;;;6.47;1.70;;;14.20;99.90;;;;;;5383182;26;20032;-71
2024/04/11 09:58:20;;;;;;;9.82;2.45;;;14.40;99.90;;;;;;5382836;26;19988;-70
2024/04/11 10:00:48;;;;;;;8.00;2.08;;;14.30;99.90;;;;;;5382732;26;20000;-70
2024/04/11 10:03:18;;;;;;;10.15;2.13;;;14.70;99.90;;;;;;5383019;26;20015;-70
2024/04/11 10:05:50;;;;;;;9.38;2.08;;;14.90;99.90;;;;;;5382946;26;20003;-71
2024/04/11 10:08:27;;;;;;;7.65;2.08;;;15.10;99.90;;;;;;5382588;26;20000;-71
2024/04/11 10:10:54;;;;;;;8.60;2.10;;;15.20;99.90;;;;;;5382658;26;19996;-71
2024/04/11 10:13:22;;;;;;;7.97;2.35;;;15.20;99.90;;;;;;5383034;26;19996;-71
2024/04/11 10:15:49;;;;;;;8.27;2.45;;;15.00;99.90;;;;;;5382664;26;20007;-71
2024/04/11 10:18:15;;;;;;;9.02;2.20;;;14.90;99.90;;;;;;5382870;26;20003;-71
2024/04/11 10:20:59;;;;;;;7.55;2.38;;;15.20;99.90;;;;;;5382673;26;19992;-71
2024/04/11 10:23:25;;;;;;;;;;;15.50;99.90;;;;;;5383171;26;20318;-71
2024/04/11 10:25:50;;;;;;;10.23;2.58;;;15.70;99.90;;;;;;5382498;26;19925;-71
2024/04/11 10:28:18;;;;;;;9.20;2.13;;;15.80;99.90;;;;;;5382134;26;20426;-71
2024/04/11 10:30:50;;;;;;;5.65;1.90;;;15.60;99.90;;;;;;5382395;26;20000;-71
2024/04/11 10:33:29;;;;;;;7.10;2.30;;;15.30;99.90;;;;;;5382285;26;20007;-71
2024/04/11 10:35:56;;;;;;;9.38;1.90;;;15.20;99.90;;;;;;5381897;26;19999;-70
2024/04/11 10:38:27;;;;;;;10.27;1.65;;;15.30;99.90;;;;;;5382244;26;20031;-70
2024/04/11 10:40:53;;;;;;;9.40;2.33;;;15.50;99.90;;;;;;5381023;26;20036;-71
2024/04/11 10:43:24;;;;;;;6.43;1.98;;;15.80;99.90;;;;;;5381886;26;19989;-70
2024/04/11 10:45:51;;;;;;;8.85;2.55;;;15.90;99.90;;;;;;5381870;26;19996;-71
2024/04/11 10:48:17;;;;;;;10.63;2.80;;;16.00;99.90;;;;;;5382503;26;19996;-71
2024/04/11 10:50:44;;;;;;;11.85;2.55;;;15.90;99.90;;;;;;5381905;26;19993;-71
2024/04/11 10:53:12;;;;;;;6.70;1.60;;;15.70;99.90;;;;;;5381964;26;20496;-71
2024/04/11 10:55:43;;;;;;;10.57;1.98;;;15.70;99.90;;;;;;5381655;26;19992;-71
2024/04/11 10:58:13;;;;;;;6.63;1.80;;;15.60;99.90;;;;;;5382013;26;19988;-71
2024/04/11 11:01:07;;;;;;;11.25;2.65;;;15.50;99.90;;;;;;5381780;26;20020;-71
2024/04/11 11:03:59;;;;;;;7.75;2.00;;;15.60;99.90;;;;;;5381681;26;19992;-71
2024/04/11 11:06:24;;;;;;;7.35;1.90;;;15.60;99.90;;;;;;5381740;26;20004;-71
2024/04/11 11:08:59;;;;;;;7.60;2.03;;;15.60;99.90;;;;;;5381642;26;19992;-71
2024/04/11 11:11:26;;;;;;;5.35;2.20;;;15.60;99.90;;;;;;5381892;26;19996;-71
2024/04/11 11:13:54;;;;;;;9.93;2.00;;;15.40;99.90;;;;;;5381462;26;20000;-71
2024/04/11 11:16:21;;;;;;;10.60;1.85;;;15.60;99.90;;;;;;5381330;26;20057;-71
2024/04/11 11:18:47;;;;;;;5.25;1.77;;;15.50;99.90;;;;;;5381560;26;19989;-71
2024/04/11 11:21:16;;;;;;;5.93;2.00;;;15.60;99.90;;;;;;5381832;26;19993;-71
2024/04/11 11:23:45;;;;;;;8.07;2.10;;;15.70;99.90;;;;;;5382059;26;20062;-71
2024/04/11 11:26:12;;;;;;;8.45;2.20;;;15.60;99.90;;;;;;5382026;26;19988;-71
2024/04/11 11:28:38;;;;;;;8.25;2.40;;;15.50;99.90;;;;;;5381397;26;20029;-71
2024/04/11 11:31:04;;;;;;;7.97;2.10;;;15.60;99.90;;;;;;5381526;26;19993;-71
2024/04/11 11:33:30;;;;;;;11.45;2.25;;;15.80;99.90;;;;;;5381072;26;19988;-71
2024/04/11 11:35:56;;;;;;;5.72;2.10;;;16.10;99.90;;;;;;5380969;26;19992;-71
2024/04/11 11:38:22;;;;;;;8.82;2.13;;;16.30;99.90;;;;;;5381109;26;20000;-70
2024/04/11 11:40:53;;;;;;;9.57;2.17;;;16.30;99.90;;;;;;5380475;26;20334;-70
2024/04/11 11:43:20;;;;;;;12.82;2.80;;;16.30;99.90;;;;;;5380239;26;19992;-71
2024/04/11 11:46:17;;;;;;;7.60;2.25;;;16.10;99.90;;;;;;5380752;26;20011;-70
2024/04/11 11:48:31;;;;;;;11.35;2.20;;;15.80;99.90;;;;;;5380753;26;20003;-71
2024/04/11 11:51:00;;;;;;;8.38;2.33;;;15.90;99.90;;;;;;5381261;26;19992;-70
2024/04/11 11:53:32;;;;;;;5.00;2.17;;;15.90;99.90;;;;;;5382590;26;19994;-71
2024/04/11 11:56:05;;;;;;;7.22;2.00;;;16.00;99.90;;;;;;5384498;26;19988;-70
2024/04/11 11:58:31;;;;;;;7.57;2.08;;;15.90;99.90;;;;;;5385214;26;19988;-71
2024/04/11 12:01:02;;;;;;;5.40;2.13;;;15.80;99.90;;;;;;5384736;26;20307;-71
2024/04/11 12:03:31;;;;;;;7.22;2.35;;;15.70;99.90;;;;;;5384661;26;19998;-70
2024/04/11 12:05:59;;;;;;;5.03;2.10;;;15.80;99.90;;;;;;5384713;26;19996;-70
2024/04/11 12:08:25;;;;;;;10.23;2.63;;;15.80;99.90;;;;;;5384516;26;19996;-72
2024/04/11 12:11:28;;;;;;;7.43;1.92;;;15.50;99.90;;;;;;5384389;26;20066;-70
2024/04/11 12:14:02;;;;;;;10.77;2.55;;;15.40;99.90;;;;;;5384641;26;20003;-70
2024/04/11 12:16:22;;;;;;;9.13;2.25;;;15.40;99.90;;;;;;5384650;26;20004;-70
2024/04/11 12:18:47;;;;;;;6.30;2.53;;;15.40;99.90;;;;;;5383825;26;19992;-71
2024/04/11 12:21:18;;;;;;;6.65;2.20;;;15.60;99.90;;;;;;5384458;26;20303;-71
2024/04/11 12:23:47;;;;;;;6.63;2.22;;;15.80;99.90;;;;;;5383637;26;20004;-70
2024/04/11 12:26:14;;;;;;;7.53;2.58;;;15.80;99.90;;;;;;5383940;26;19988;-70
2024/04/11 12:28:45;;;;;;;7.47;2.15;;;16.10;99.90;;;;;;5384019;26;20329;-70
2024/04/11 12:31:15;;;;;;;9.77;2.40;;;16.20;99.90;;;;;;5383928;26;20380;-71
2024/04/11 12:33:45;;;;;;;6.05;2.40;;;16.10;99.90;;;;;;5383832;26;19988;-70
2024/04/11 12:36:42;;;;;;;9.77;2.83;;;16.20;99.90;;;;;;5384195;26;20066;-70
2024/04/11 12:39:21;;;;;;;9.55;2.67;;;16.20;99.90;;;;;;5383712;26;19996;-70
2024/04/11 12:41:46;;;;;;;8.18;2.25;;;16.20;99.90;;;;;;5383623;26;20000;-70
2024/04/11 12:44:11;;;;;;;9.32;2.58;;;16.30;99.90;;;;;;5383537;26;19988;-70
2024/04/11 12:46:49;;;;;;;10.02;3.38;;;16.30;99.90;;;;;;5383889;26;20060;-70
2024/04/11 12:49:15;;;;;;;10.27;3.22;;;16.60;99.90;;;;;;5383303;26;20032;-70
2024/04/11 12:51:45;;;;;;;7.30;2.33;;;16.50;99.90;;;;;;5384089;26;20057;-71
2024/04/11 12:54:15;;;;;;;6.25;2.47;;;16.80;99.90;;;;;;5383891;26;20344;-70